sensor_id;sensor_type;location;lat;lon;timestamp;P1;durP1;ratioP1;P2;durP2;ratioP2
10319;SDS011;5205;52.168;5.420;2023-06-22T00:01:44;11.93;;;5.93;;
10319;SDS011;5205;52.168;5.420;2023-06-22T00:04:11;8.80;;;5.45;;
10319;SDS011;5205;52.168;5.420;2023-06-22T00:06:39;8.48;;;5.80;;
10319;SDS011;5205;52.168;5.420;2023-06-22T00:09:07;8.30;;;5.28;;
10319;SDS011;5205;52.168;5.420;2023-06-22T00:11:35;10.65;;;5.63;;
10319;SDS011;5205;52.168;5.420;2023-06-22T00:14:02;7.78;;;5.07;;
10319;SDS011;5205;52.168;5.420;2023-06-22T00:16:30;8.98;;;5.45;;
10319;SDS011;5205;52.168;5.420;2023-06-22T00:18:57;9.25;;;5.00;;
10319;SDS011;5205;52.168;5.420;2023-06-22T00:21:25;10.23;;;5.55;;
10319;SDS011;5205;52.168;5.420;2023-06-22T00:23:52;9.95;;;5.55;;
10319;SDS011;5205;52.168;5.420;2023-06-22T00:26:21;11.32;;;5.68;;
10319;SDS011;5205;52.168;5.420;2023-06-22T00:28:48;9.18;;;5.40;;
10319;SDS011;5205;52.168;5.420;2023-06-22T00:31:15;7.97;;;5.28;;
10319;SDS011;5205;52.168;5.420;2023-06-22T00:33:43;9.18;;;5.38;;
10319;SDS011;5205;52.168;5.420;2023-06-22T00:36:10;13.52;;;5.80;;
10319;SDS011;5205;52.168;5.420;2023-06-22T00:38:41;11.40;;;5.50;;
10319;SDS011;5205;52.168;5.420;2023-06-22T00:41:08;8.15;;;5.22;;
10319;SDS011;5205;52.168;5.420;2023-06-22T00:43:36;10.00;;;5.35;;
10319;SDS011;5205;52.168;5.420;2023-06-22T00:46:03;9.55;;;5.50;;
10319;SDS011;5205;52.168;5.420;2023-06-22T00:48:30;8.82;;;5.18;;
10319;SDS011;5205;52.168;5.420;2023-06-22T00:50:57;11.40;;;5.78;;
10319;SDS011;5205;52.168;5.420;2023-06-22T00:53:24;8.60;;;4.85;;
10319;SDS011;5205;52.168;5.420;2023-06-22T00:55:52;10.98;;;5.10;;
10319;SDS011;5205;52.168;5.420;2023-06-22T00:58:19;9.52;;;5.60;;
10319;SDS011;5205;52.168;5.420;2023-06-22T01:00:48;8.80;;;5.45;;
10319;SDS011;5205;52.168;5.420;2023-06-22T01:03:15;10.38;;;5.70;;
10319;SDS011;5205;52.168;5.420;2023-06-22T01:05:43;6.95;;;5.00;;
10319;SDS011;5205;52.168;5.420;2023-06-22T01:08:16;11.88;;;5.78;;
10319;SDS011;5205;52.168;5.420;2023-06-22T01:10:48;9.90;;;5.93;;
10319;SDS011;5205;52.168;5.420;2023-06-22T01:13:19;10.63;;;5.90;;
10319;SDS011;5205;52.168;5.420;2023-06-22T01:15:51;10.30;;;5.88;;
10319;SDS011;5205;52.168;5.420;2023-06-22T01:18:21;8.63;;;5.45;;
10319;SDS011;5205;52.168;5.420;2023-06-22T01:20:50;10.65;;;5.78;;
10319;SDS011;5205;52.168;5.420;2023-06-22T01:23:20;9.15;;;5.57;;
10319;SDS011;5205;52.168;5.420;2023-06-22T01:25:54;9.65;;;5.95;;
10319;SDS011;5205;52.168;5.420;2023-06-22T01:28:32;10.18;;;5.97;;
10319;SDS011;5205;52.168;5.420;2023-06-22T01:30:59;8.45;;;5.45;;
10319;SDS011;5205;52.168;5.420;2023-06-22T01:33:30;9.65;;;5.47;;
10319;SDS011;5205;52.168;5.420;2023-06-22T01:35:59;12.15;;;6.53;;
10319;SDS011;5205;52.168;5.420;2023-06-22T01:38:27;10.35;;;5.93;;
10319;SDS011;5205;52.168;5.420;2023-06-22T01:40:55;10.32;;;5.47;;
10319;SDS011;5205;52.168;5.420;2023-06-22T01:43:23;8.85;;;6.10;;
10319;SDS011;5205;52.168;5.420;2023-06-22T01:45:53;12.63;;;6.30;;
10319;SDS011;5205;52.168;5.420;2023-06-22T01:48:20;11.13;;;6.20;;
10319;SDS011;5205;52.168;5.420;2023-06-22T01:50:48;10.60;;;6.45;;
10319;SDS011;5205;52.168;5.420;2023-06-22T01:53:15;10.52;;;6.53;;
10319;SDS011;5205;52.168;5.420;2023-06-22T01:55:42;10.75;;;7.13;;
10319;SDS011;5205;52.168;5.420;2023-06-22T01:58:09;11.57;;;6.78;;
10319;SDS011;5205;52.168;5.420;2023-06-22T02:00:37;10.98;;;6.72;;
10319;SDS011;5205;52.168;5.420;2023-06-22T02:03:08;12.65;;;6.55;;
10319;SDS011;5205;52.168;5.420;2023-06-22T02:05:38;11.07;;;6.72;;
10319;SDS011;5205;52.168;5.420;2023-06-22T02:08:08;12.55;;;6.35;;
10319;SDS011;5205;52.168;5.420;2023-06-22T02:10:36;11.05;;;6.60;;
10319;SDS011;5205;52.168;5.420;2023-06-22T02:13:06;10.63;;;6.30;;
10319;SDS011;5205;52.168;5.420;2023-06-22T02:15:33;8.80;;;5.95;;
10319;SDS011;5205;52.168;5.420;2023-06-22T02:18:01;14.68;;;7.53;;
10319;SDS011;5205;52.168;5.420;2023-06-22T02:20:29;12.20;;;7.45;;
10319;SDS011;5205;52.168;5.420;2023-06-22T02:22:56;10.77;;;7.05;;
10319;SDS011;5205;52.168;5.420;2023-06-22T02:25:23;11.55;;;6.55;;
10319;SDS011;5205;52.168;5.420;2023-06-22T02:27:51;13.68;;;7.47;;
10319;SDS011;5205;52.168;5.420;2023-06-22T02:30:18;11.18;;;6.90;;
10319;SDS011;5205;52.168;5.420;2023-06-22T02:32:45;11.50;;;7.28;;
10319;SDS011;5205;52.168;5.420;2023-06-22T02:35:12;11.35;;;7.18;;
10319;SDS011;5205;52.168;5.420;2023-06-22T02:37:41;10.70;;;7.22;;
10319;SDS011;5205;52.168;5.420;2023-06-22T02:40:08;10.40;;;6.38;;
10319;SDS011;5205;52.168;5.420;2023-06-22T02:42:35;11.80;;;7.70;;
10319;SDS011;5205;52.168;5.420;2023-06-22T02:45:03;12.45;;;6.97;;
10319;SDS011;5205;52.168;5.420;2023-06-22T02:47:30;11.15;;;6.45;;
10319;SDS011;5205;52.168;5.420;2023-06-22T02:49:57;10.70;;;6.88;;
10319;SDS011;5205;52.168;5.420;2023-06-22T02:52:24;11.40;;;6.75;;
10319;SDS011;5205;52.168;5.420;2023-06-22T02:54:53;11.77;;;6.90;;
10319;SDS011;5205;52.168;5.420;2023-06-22T02:57:22;11.43;;;6.25;;
10319;SDS011;5205;52.168;5.420;2023-06-22T02:59:49;9.73;;;7.10;;
10319;SDS011;5205;52.168;5.420;2023-06-22T03:02:16;12.52;;;7.57;;
10319;SDS011;5205;52.168;5.420;2023-06-22T03:04:46;12.57;;;7.68;;
10319;SDS011;5205;52.168;5.420;2023-06-22T03:07:14;9.88;;;6.60;;
10319;SDS011;5205;52.168;5.420;2023-06-22T03:09:42;11.20;;;7.53;;
10319;SDS011;5205;52.168;5.420;2023-06-22T03:12:11;9.55;;;6.97;;
10319;SDS011;5205;52.168;5.420;2023-06-22T03:14:38;10.35;;;6.75;;
10319;SDS011;5205;52.168;5.420;2023-06-22T03:17:05;11.40;;;7.22;;
10319;SDS011;5205;52.168;5.420;2023-06-22T03:19:32;15.50;;;7.95;;
10319;SDS011;5205;52.168;5.420;2023-06-22T03:22:00;8.93;;;6.32;;
10319;SDS011;5205;52.168;5.420;2023-06-22T03:24:27;11.88;;;7.97;;
10319;SDS011;5205;52.168;5.420;2023-06-22T03:26:54;12.95;;;7.50;;
10319;SDS011;5205;52.168;5.420;2023-06-22T03:29:24;13.07;;;7.80;;
10319;SDS011;5205;52.168;5.420;2023-06-22T03:31:51;12.15;;;7.35;;
10319;SDS011;5205;52.168;5.420;2023-06-22T03:34:18;10.10;;;6.90;;
10319;SDS011;5205;52.168;5.420;2023-06-22T03:36:45;10.40;;;7.03;;
10319;SDS011;5205;52.168;5.420;2023-06-22T03:39:12;11.93;;;7.40;;
10319;SDS011;5205;52.168;5.420;2023-06-22T03:41:39;11.27;;;7.22;;
10319;SDS011;5205;52.168;5.420;2023-06-22T03:44:06;15.07;;;7.35;;
10319;SDS011;5205;52.168;5.420;2023-06-22T03:46:38;13.98;;;8.32;;
10319;SDS011;5205;52.168;5.420;2023-06-22T03:49:06;14.30;;;8.07;;
10319;SDS011;5205;52.168;5.420;2023-06-22T03:51:33;13.77;;;7.60;;
10319;SDS011;5205;52.168;5.420;2023-06-22T03:54:00;16.73;;;8.45;;
10319;SDS011;5205;52.168;5.420;2023-06-22T03:56:27;14.20;;;7.93;;
10319;SDS011;5205;52.168;5.420;2023-06-22T03:58:54;12.18;;;7.30;;
10319;SDS011;5205;52.168;5.420;2023-06-22T04:01:21;17.00;;;8.85;;
10319;SDS011;5205;52.168;5.420;2023-06-22T04:03:50;15.48;;;9.40;;
10319;SDS011;5205;52.168;5.420;2023-06-22T04:06:17;13.95;;;8.70;;
10319;SDS011;5205;52.168;5.420;2023-06-22T04:08:45;13.05;;;8.35;;
10319;SDS011;5205;52.168;5.420;2023-06-22T04:11:15;12.93;;;8.02;;
10319;SDS011;5205;52.168;5.420;2023-06-22T04:13:43;16.88;;;9.48;;
10319;SDS011;5205;52.168;5.420;2023-06-22T04:16:10;15.15;;;8.70;;
10319;SDS011;5205;52.168;5.420;2023-06-22T04:18:37;13.90;;;8.45;;
10319;SDS011;5205;52.168;5.420;2023-06-22T04:21:05;18.95;;;10.15;;
10319;SDS011;5205;52.168;5.420;2023-06-22T04:23:32;18.48;;;10.68;;
10319;SDS011;5205;52.168;5.420;2023-06-22T04:26:00;19.25;;;12.15;;
10319;SDS011;5205;52.168;5.420;2023-06-22T04:28:27;23.35;;;11.10;;
10319;SDS011;5205;52.168;5.420;2023-06-22T04:30:54;15.73;;;8.98;;
10319;SDS011;5205;52.168;5.420;2023-06-22T04:33:27;16.65;;;10.07;;
10319;SDS011;5205;52.168;5.420;2023-06-22T04:35:55;15.05;;;9.75;;
10319;SDS011;5205;52.168;5.420;2023-06-22T04:38:24;24.02;;;11.50;;
10319;SDS011;5205;52.168;5.420;2023-06-22T04:40:51;17.95;;;11.50;;
10319;SDS011;5205;52.168;5.420;2023-06-22T04:43:19;25.48;;;11.18;;
10319;SDS011;5205;52.168;5.420;2023-06-22T04:45:46;18.60;;;11.32;;
10319;SDS011;5205;52.168;5.420;2023-06-22T04:48:17;20.23;;;12.20;;
10319;SDS011;5205;52.168;5.420;2023-06-22T04:50:44;22.80;;;12.93;;
10319;SDS011;5205;52.168;5.420;2023-06-22T04:53:11;22.15;;;12.50;;
10319;SDS011;5205;52.168;5.420;2023-06-22T04:55:40;20.98;;;12.60;;
10319;SDS011;5205;52.168;5.420;2023-06-22T04:58:10;18.10;;;10.85;;
10319;SDS011;5205;52.168;5.420;2023-06-22T05:00:38;21.52;;;11.25;;
10319;SDS011;5205;52.168;5.420;2023-06-22T05:03:05;18.15;;;10.90;;
10319;SDS011;5205;52.168;5.420;2023-06-22T05:05:36;22.67;;;12.45;;
10319;SDS011;5205;52.168;5.420;2023-06-22T05:08:03;18.45;;;11.38;;
10319;SDS011;5205;52.168;5.420;2023-06-22T05:10:31;19.25;;;11.80;;
10319;SDS011;5205;52.168;5.420;2023-06-22T05:13:00;20.15;;;12.55;;
10319;SDS011;5205;52.168;5.420;2023-06-22T05:15:27;18.67;;;10.95;;
10319;SDS011;5205;52.168;5.420;2023-06-22T05:17:58;17.00;;;12.20;;
10319;SDS011;5205;52.168;5.420;2023-06-22T05:20:30;21.27;;;12.82;;
10319;SDS011;5205;52.168;5.420;2023-06-22T05:22:58;22.98;;;14.02;;
10319;SDS011;5205;52.168;5.420;2023-06-22T05:25:25;26.38;;;15.45;;
10319;SDS011;5205;52.168;5.420;2023-06-22T05:27:54;24.30;;;14.38;;
10319;SDS011;5205;52.168;5.420;2023-06-22T05:30:23;26.08;;;15.40;;
10319;SDS011;5205;52.168;5.420;2023-06-22T05:32:50;26.85;;;16.45;;
10319;SDS011;5205;52.168;5.420;2023-06-22T05:35:17;25.35;;;16.42;;
10319;SDS011;5205;52.168;5.420;2023-06-22T05:37:45;27.15;;;16.13;;
10319;SDS011;5205;52.168;5.420;2023-06-22T05:40:12;27.23;;;16.75;;
10319;SDS011;5205;52.168;5.420;2023-06-22T05:42:40;27.42;;;17.73;;
10319;SDS011;5205;52.168;5.420;2023-06-22T05:45:07;25.42;;;17.08;;
10319;SDS011;5205;52.168;5.420;2023-06-22T05:47:35;28.15;;;17.95;;
10319;SDS011;5205;52.168;5.420;2023-06-22T05:50:03;24.67;;;16.13;;
10319;SDS011;5205;52.168;5.420;2023-06-22T05:52:31;30.30;;;18.08;;
10319;SDS011;5205;52.168;5.420;2023-06-22T05:54:59;27.73;;;17.15;;
10319;SDS011;5205;52.168;5.420;2023-06-22T05:57:26;31.00;;;17.25;;
10319;SDS011;5205;52.168;5.420;2023-06-22T05:59:53;35.03;;;17.25;;
10319;SDS011;5205;52.168;5.420;2023-06-22T06:02:20;28.05;;;17.17;;
10319;SDS011;5205;52.168;5.420;2023-06-22T06:04:49;25.08;;;15.82;;
10319;SDS011;5205;52.168;5.420;2023-06-22T06:07:17;28.20;;;16.80;;
10319;SDS011;5205;52.168;5.420;2023-06-22T06:09:45;25.95;;;15.95;;
10319;SDS011;5205;52.168;5.420;2023-06-22T06:12:13;27.63;;;17.00;;
10319;SDS011;5205;52.168;5.420;2023-06-22T06:14:40;27.67;;;15.70;;
10319;SDS011;5205;52.168;5.420;2023-06-22T06:17:07;23.67;;;15.32;;
10319;SDS011;5205;52.168;5.420;2023-06-22T06:19:34;27.42;;;17.63;;
10319;SDS011;5205;52.168;5.420;2023-06-22T06:22:03;26.38;;;16.10;;
10319;SDS011;5205;52.168;5.420;2023-06-22T06:24:30;25.67;;;15.50;;
10319;SDS011;5205;52.168;5.420;2023-06-22T06:26:57;31.08;;;16.98;;
10319;SDS011;5205;52.168;5.420;2023-06-22T06:29:24;27.13;;;15.48;;
10319;SDS011;5205;52.168;5.420;2023-06-22T06:31:51;22.48;;;14.77;;
10319;SDS011;5205;52.168;5.420;2023-06-22T06:34:19;27.63;;;16.40;;
10319;SDS011;5205;52.168;5.420;2023-06-22T06:36:46;23.25;;;15.98;;
10319;SDS011;5205;52.168;5.420;2023-06-22T06:39:14;26.42;;;15.68;;
10319;SDS011;5205;52.168;5.420;2023-06-22T06:41:41;26.15;;;16.17;;
10319;SDS011;5205;52.168;5.420;2023-06-22T06:44:09;26.80;;;16.02;;
10319;SDS011;5205;52.168;5.420;2023-06-22T06:46:36;25.55;;;15.32;;
10319;SDS011;5205;52.168;5.420;2023-06-22T06:49:03;26.35;;;16.08;;
10319;SDS011;5205;52.168;5.420;2023-06-22T06:51:30;24.02;;;16.50;;
10319;SDS011;5205;52.168;5.420;2023-06-22T06:53:58;23.85;;;16.25;;
10319;SDS011;5205;52.168;5.420;2023-06-22T06:56:26;23.35;;;15.52;;
10319;SDS011;5205;52.168;5.420;2023-06-22T06:58:54;23.92;;;15.27;;
10319;SDS011;5205;52.168;5.420;2023-06-22T07:01:21;25.98;;;15.35;;
10319;SDS011;5205;52.168;5.420;2023-06-22T07:03:49;25.80;;;14.82;;
10319;SDS011;5205;52.168;5.420;2023-06-22T07:06:16;22.65;;;14.77;;
10319;SDS011;5205;52.168;5.420;2023-06-22T07:08:43;22.50;;;14.60;;
10319;SDS011;5205;52.168;5.420;2023-06-22T07:11:10;20.95;;;12.60;;
10319;SDS011;5205;52.168;5.420;2023-06-22T07:13:38;20.27;;;13.02;;
10319;SDS011;5205;52.168;5.420;2023-06-22T07:16:06;18.90;;;12.38;;
10319;SDS011;5205;52.168;5.420;2023-06-22T07:18:33;20.65;;;12.13;;
10319;SDS011;5205;52.168;5.420;2023-06-22T07:21:00;16.95;;;10.32;;
10319;SDS011;5205;52.168;5.420;2023-06-22T07:23:28;18.70;;;11.38;;
10319;SDS011;5205;52.168;5.420;2023-06-22T07:25:55;18.17;;;10.55;;
10319;SDS011;5205;52.168;5.420;2023-06-22T07:28:22;17.10;;;10.32;;
10319;SDS011;5205;52.168;5.420;2023-06-22T07:30:51;16.83;;;11.10;;
10319;SDS011;5205;52.168;5.420;2023-06-22T07:33:18;24.55;;;11.70;;
10319;SDS011;5205;52.168;5.420;2023-06-22T07:35:45;18.25;;;9.85;;
10319;SDS011;5205;52.168;5.420;2023-06-22T07:38:13;21.60;;;10.88;;
10319;SDS011;5205;52.168;5.420;2023-06-22T07:40:40;18.85;;;10.68;;
10319;SDS011;5205;52.168;5.420;2023-06-22T07:43:08;16.55;;;10.13;;
10319;SDS011;5205;52.168;5.420;2023-06-22T07:45:37;15.93;;;10.85;;
10319;SDS011;5205;52.168;5.420;2023-06-22T07:48:06;15.88;;;9.20;;
10319;SDS011;5205;52.168;5.420;2023-06-22T07:50:34;12.48;;;9.00;;
10319;SDS011;5205;52.168;5.420;2023-06-22T07:53:01;15.52;;;9.35;;
10319;SDS011;5205;52.168;5.420;2023-06-22T07:55:28;14.95;;;9.38;;
10319;SDS011;5205;52.168;5.420;2023-06-22T07:57:55;15.68;;;10.13;;
10319;SDS011;5205;52.168;5.420;2023-06-22T08:00:23;14.25;;;9.10;;
10319;SDS011;5205;52.168;5.420;2023-06-22T08:02:50;15.18;;;8.65;;
10319;SDS011;5205;52.168;5.420;2023-06-22T08:05:19;15.98;;;8.27;;
10319;SDS011;5205;52.168;5.420;2023-06-22T08:07:49;11.90;;;8.43;;
10319;SDS011;5205;52.168;5.420;2023-06-22T08:10:16;13.38;;;9.25;;
10319;SDS011;5205;52.168;5.420;2023-06-22T08:12:43;13.13;;;8.85;;
10319;SDS011;5205;52.168;5.420;2023-06-22T08:15:10;10.95;;;8.52;;
10319;SDS011;5205;52.168;5.420;2023-06-22T08:17:38;13.68;;;8.88;;
10319;SDS011;5205;52.168;5.420;2023-06-22T08:20:06;14.43;;;8.52;;
10319;SDS011;5205;52.168;5.420;2023-06-22T08:22:38;12.63;;;7.75;;
10319;SDS011;5205;52.168;5.420;2023-06-22T08:25:06;13.18;;;8.63;;
10319;SDS011;5205;52.168;5.420;2023-06-22T08:27:33;14.80;;;8.15;;
10319;SDS011;5205;52.168;5.420;2023-06-22T08:30:01;10.88;;;7.60;;
10319;SDS011;5205;52.168;5.420;2023-06-22T08:32:28;12.27;;;6.95;;
10319;SDS011;5205;52.168;5.420;2023-06-22T08:34:57;11.02;;;6.63;;
10319;SDS011;5205;52.168;5.420;2023-06-22T08:37:25;12.15;;;6.82;;
10319;SDS011;5205;52.168;5.420;2023-06-22T08:39:57;12.73;;;7.53;;
10319;SDS011;5205;52.168;5.420;2023-06-22T08:42:24;9.45;;;7.05;;
10319;SDS011;5205;52.168;5.420;2023-06-22T08:44:51;9.10;;;5.53;;
10319;SDS011;5205;52.168;5.420;2023-06-22T08:47:18;7.97;;;5.70;;
10319;SDS011;5205;52.168;5.420;2023-06-22T08:49:46;9.35;;;6.18;;
10319;SDS011;5205;52.168;5.420;2023-06-22T08:52:13;14.50;;;6.65;;
10319;SDS011;5205;52.168;5.420;2023-06-22T08:54:40;12.93;;;5.75;;
10319;SDS011;5205;52.168;5.420;2023-06-22T08:57:10;11.00;;;5.45;;
10319;SDS011;5205;52.168;5.420;2023-06-22T08:59:37;11.45;;;5.53;;
10319;SDS011;5205;52.168;5.420;2023-06-22T09:02:05;8.50;;;5.13;;
10319;SDS011;5205;52.168;5.420;2023-06-22T09:04:32;7.78;;;4.20;;
10319;SDS011;5205;52.168;5.420;2023-06-22T09:06:59;6.18;;;3.63;;
10319;SDS011;5205;52.168;5.420;2023-06-22T09:09:27;6.72;;;3.70;;
10319;SDS011;5205;52.168;5.420;2023-06-22T09:11:54;6.50;;;3.90;;
10319;SDS011;5205;52.168;5.420;2023-06-22T09:14:22;6.53;;;3.58;;
10319;SDS011;5205;52.168;5.420;2023-06-22T09:16:50;5.00;;;3.25;;
10319;SDS011;5205;52.168;5.420;2023-06-22T09:19:17;6.30;;;3.63;;
10319;SDS011;5205;52.168;5.420;2023-06-22T09:21:44;6.93;;;3.83;;
10319;SDS011;5205;52.168;5.420;2023-06-22T09:24:11;5.90;;;4.00;;
10319;SDS011;5205;52.168;5.420;2023-06-22T09:26:38;6.90;;;4.22;;
10319;SDS011;5205;52.168;5.420;2023-06-22T09:29:05;10.57;;;5.22;;
10319;SDS011;5205;52.168;5.420;2023-06-22T09:31:33;6.85;;;4.30;;
10319;SDS011;5205;52.168;5.420;2023-06-22T09:34:01;8.93;;;4.38;;
10319;SDS011;5205;52.168;5.420;2023-06-22T09:36:28;6.95;;;3.65;;
10319;SDS011;5205;52.168;5.420;2023-06-22T09:38:55;7.35;;;3.83;;
10319;SDS011;5205;52.168;5.420;2023-06-22T09:41:23;7.85;;;3.63;;
10319;SDS011;5205;52.168;5.420;2023-06-22T09:43:51;9.20;;;4.13;;
10319;SDS011;5205;52.168;5.420;2023-06-22T09:46:18;6.55;;;3.47;;
10319;SDS011;5205;52.168;5.420;2023-06-22T09:48:48;9.95;;;3.40;;
10319;SDS011;5205;52.168;5.420;2023-06-22T09:51:17;7.20;;;3.50;;
10319;SDS011;5205;52.168;5.420;2023-06-22T09:53:45;6.75;;;3.22;;
10319;SDS011;5205;52.168;5.420;2023-06-22T09:56:12;6.30;;;3.17;;
10319;SDS011;5205;52.168;5.420;2023-06-22T09:58:40;9.23;;;3.00;;
10319;SDS011;5205;52.168;5.420;2023-06-22T10:01:07;6.97;;;3.55;;
10319;SDS011;5205;52.168;5.420;2023-06-22T10:03:35;4.25;;;2.63;;
10319;SDS011;5205;52.168;5.420;2023-06-22T10:06:03;5.03;;;2.75;;
10319;SDS011;5205;52.168;5.420;2023-06-22T10:08:30;5.30;;;2.80;;
10319;SDS011;5205;52.168;5.420;2023-06-22T10:10:58;4.22;;;2.85;;
10319;SDS011;5205;52.168;5.420;2023-06-22T10:13:25;4.50;;;2.83;;
10319;SDS011;5205;52.168;5.420;2023-06-22T10:15:52;5.95;;;2.63;;
10319;SDS011;5205;52.168;5.420;2023-06-22T10:18:19;7.13;;;3.22;;
10319;SDS011;5205;52.168;5.420;2023-06-22T10:20:47;4.47;;;2.67;;
10319;SDS011;5205;52.168;5.420;2023-06-22T10:23:17;5.43;;;3.17;;
10319;SDS011;5205;52.168;5.420;2023-06-22T10:25:45;6.45;;;2.83;;
10319;SDS011;5205;52.168;5.420;2023-06-22T10:28:12;6.75;;;3.45;;
10319;SDS011;5205;52.168;5.420;2023-06-22T10:30:39;4.40;;;2.80;;
10319;SDS011;5205;52.168;5.420;2023-06-22T10:33:07;6.32;;;3.30;;
10319;SDS011;5205;52.168;5.420;2023-06-22T10:35:34;6.25;;;3.15;;
10319;SDS011;5205;52.168;5.420;2023-06-22T10:38:02;6.70;;;3.55;;
10319;SDS011;5205;52.168;5.420;2023-06-22T10:40:31;6.25;;;3.53;;
10319;SDS011;5205;52.168;5.420;2023-06-22T10:42:58;4.75;;;3.42;;
10319;SDS011;5205;52.168;5.420;2023-06-22T10:45:25;5.35;;;3.08;;
10319;SDS011;5205;52.168;5.420;2023-06-22T10:47:55;6.20;;;3.33;;
10319;SDS011;5205;52.168;5.420;2023-06-22T10:50:22;6.18;;;3.05;;
10319;SDS011;5205;52.168;5.420;2023-06-22T10:52:50;4.15;;;2.95;;
10319;SDS011;5205;52.168;5.420;2023-06-22T10:55:17;6.15;;;3.47;;
10319;SDS011;5205;52.168;5.420;2023-06-22T10:57:46;5.68;;;3.53;;
10319;SDS011;5205;52.168;5.420;2023-06-22T11:00:13;6.43;;;3.60;;
10319;SDS011;5205;52.168;5.420;2023-06-22T11:02:40;6.97;;;4.30;;
10319;SDS011;5205;52.168;5.420;2023-06-22T11:05:08;10.93;;;5.85;;
10319;SDS011;5205;52.168;5.420;2023-06-22T11:07:35;10.77;;;6.93;;
10319;SDS011;5205;52.168;5.420;2023-06-22T11:10:02;14.57;;;7.32;;
10319;SDS011;5205;52.168;5.420;2023-06-22T11:12:30;13.70;;;7.20;;
10319;SDS011;5205;52.168;5.420;2023-06-22T11:14:58;13.13;;;7.40;;
10319;SDS011;5205;52.168;5.420;2023-06-22T11:17:25;13.30;;;7.13;;
10319;SDS011;5205;52.168;5.420;2023-06-22T11:19:52;11.52;;;7.40;;
10319;SDS011;5205;52.168;5.420;2023-06-22T11:22:19;14.68;;;8.18;;
10319;SDS011;5205;52.168;5.420;2023-06-22T11:24:46;11.05;;;6.88;;
10319;SDS011;5205;52.168;5.420;2023-06-22T11:27:14;13.02;;;7.00;;
10319;SDS011;5205;52.168;5.420;2023-06-22T11:29:42;9.93;;;6.90;;
10319;SDS011;5205;52.168;5.420;2023-06-22T11:32:11;11.07;;;7.28;;
10319;SDS011;5205;52.168;5.420;2023-06-22T11:34:38;12.25;;;7.40;;
10319;SDS011;5205;52.168;5.420;2023-06-22T11:37:05;14.35;;;7.85;;
10319;SDS011;5205;52.168;5.420;2023-06-22T11:39:32;12.07;;;7.22;;
10319;SDS011;5205;52.168;5.420;2023-06-22T11:41:59;10.93;;;7.78;;
10319;SDS011;5205;52.168;5.420;2023-06-22T11:44:26;11.77;;;7.32;;
10319;SDS011;5205;52.168;5.420;2023-06-22T11:46:53;16.77;;;8.32;;
10319;SDS011;5205;52.168;5.420;2023-06-22T11:49:22;17.60;;;7.22;;
10319;SDS011;5205;52.168;5.420;2023-06-22T11:51:49;10.50;;;6.43;;
10319;SDS011;5205;52.168;5.420;2023-06-22T11:54:16;12.35;;;7.32;;
10319;SDS011;5205;52.168;5.420;2023-06-22T11:56:43;10.73;;;7.05;;
10319;SDS011;5205;52.168;5.420;2023-06-22T11:59:10;12.98;;;7.82;;
10319;SDS011;5205;52.168;5.420;2023-06-22T12:01:38;12.30;;;6.80;;
10319;SDS011;5205;52.168;5.420;2023-06-22T12:04:05;13.30;;;7.30;;
10319;SDS011;5205;52.168;5.420;2023-06-22T12:06:37;10.70;;;6.75;;
10319;SDS011;5205;52.168;5.420;2023-06-22T12:09:07;11.30;;;7.03;;
10319;SDS011;5205;52.168;5.420;2023-06-22T12:11:34;13.10;;;6.72;;
10319;SDS011;5205;52.168;5.420;2023-06-22T12:14:01;13.13;;;6.88;;
10319;SDS011;5205;52.168;5.420;2023-06-22T12:16:28;9.13;;;6.03;;
10319;SDS011;5205;52.168;5.420;2023-06-22T12:18:55;9.63;;;6.53;;
10319;SDS011;5205;52.168;5.420;2023-06-22T12:21:22;10.95;;;6.70;;
10319;SDS011;5205;52.168;5.420;2023-06-22T12:23:51;11.05;;;6.25;;
10319;SDS011;5205;52.168;5.420;2023-06-22T12:26:18;11.50;;;6.68;;
10319;SDS011;5205;52.168;5.420;2023-06-22T12:28:45;9.27;;;6.35;;
10319;SDS011;5205;52.168;5.420;2023-06-22T12:31:12;11.25;;;6.50;;
10319;SDS011;5205;52.168;5.420;2023-06-22T12:33:39;8.65;;;6.10;;
10319;SDS011;5205;52.168;5.420;2023-06-22T12:36:07;10.38;;;6.97;;
10319;SDS011;5205;52.168;5.420;2023-06-22T12:38:34;13.05;;;7.03;;
10319;SDS011;5205;52.168;5.420;2023-06-22T12:41:03;9.85;;;5.55;;
10319;SDS011;5205;52.168;5.420;2023-06-22T12:43:30;10.18;;;6.40;;
10319;SDS011;5205;52.168;5.420;2023-06-22T12:45:57;8.77;;;6.13;;
10319;SDS011;5205;52.168;5.420;2023-06-22T12:48:25;10.57;;;6.72;;
10319;SDS011;5205;52.168;5.420;2023-06-22T12:50:52;9.95;;;6.38;;
10319;SDS011;5205;52.168;5.420;2023-06-22T12:53:19;12.88;;;6.20;;
10319;SDS011;5205;52.168;5.420;2023-06-22T12:55:47;12.30;;;5.47;;
10319;SDS011;5205;52.168;5.420;2023-06-22T12:58:16;8.18;;;5.30;;
10319;SDS011;5205;52.168;5.420;2023-06-22T13:00:43;13.25;;;6.55;;
10319;SDS011;5205;52.168;5.420;2023-06-22T13:03:10;9.63;;;6.38;;
10319;SDS011;5205;52.168;5.420;2023-06-22T13:05:37;8.63;;;6.65;;
10319;SDS011;5205;52.168;5.420;2023-06-22T13:08:04;10.57;;;6.75;;
10319;SDS011;5205;52.168;5.420;2023-06-22T13:10:31;10.23;;;6.15;;
10319;SDS011;5205;52.168;5.420;2023-06-22T13:12:58;10.13;;;6.40;;
10319;SDS011;5205;52.168;5.420;2023-06-22T13:15:30;11.82;;;7.07;;
10319;SDS011;5205;52.168;5.420;2023-06-22T13:17:57;12.13;;;6.85;;
10319;SDS011;5205;52.168;5.420;2023-06-22T13:20:24;12.48;;;6.57;;
10319;SDS011;5205;52.168;5.420;2023-06-22T13:22:53;13.10;;;6.78;;
10319;SDS011;5205;52.168;5.420;2023-06-22T13:25:21;11.77;;;6.90;;
10319;SDS011;5205;52.168;5.420;2023-06-22T13:27:51;10.60;;;6.95;;
10319;SDS011;5205;52.168;5.420;2023-06-22T13:30:18;12.57;;;7.22;;
10319;SDS011;5205;52.168;5.420;2023-06-22T13:32:47;10.63;;;7.53;;
10319;SDS011;5205;52.168;5.420;2023-06-22T13:35:14;11.77;;;7.88;;
10319;SDS011;5205;52.168;5.420;2023-06-22T13:37:41;14.98;;;7.97;;
10319;SDS011;5205;52.168;5.420;2023-06-22T13:40:08;12.23;;;8.93;;
10319;SDS011;5205;52.168;5.420;2023-06-22T13:42:36;14.07;;;7.85;;
10319;SDS011;5205;52.168;5.420;2023-06-22T13:45:03;16.20;;;9.40;;
10319;SDS011;5205;52.168;5.420;2023-06-22T13:47:31;12.65;;;8.77;;
10319;SDS011;5205;52.168;5.420;2023-06-22T13:50:00;14.95;;;8.40;;
10319;SDS011;5205;52.168;5.420;2023-06-22T13:52:28;11.10;;;8.63;;
10319;SDS011;5205;52.168;5.420;2023-06-22T13:54:55;14.10;;;8.40;;
10319;SDS011;5205;52.168;5.420;2023-06-22T13:57:22;14.85;;;9.23;;
10319;SDS011;5205;52.168;5.420;2023-06-22T13:59:49;16.23;;;8.93;;
10319;SDS011;5205;52.168;5.420;2023-06-22T14:02:16;17.02;;;8.95;;
10319;SDS011;5205;52.168;5.420;2023-06-22T14:04:44;13.43;;;9.32;;
10319;SDS011;5205;52.168;5.420;2023-06-22T14:07:12;18.35;;;9.48;;
10319;SDS011;5205;52.168;5.420;2023-06-22T14:09:39;16.13;;;9.23;;
10319;SDS011;5205;52.168;5.420;2023-06-22T14:12:07;15.70;;;10.32;;
10319;SDS011;5205;52.168;5.420;2023-06-22T14:14:34;12.57;;;9.52;;
10319;SDS011;5205;52.168;5.420;2023-06-22T14:17:01;13.57;;;9.57;;
10319;SDS011;5205;52.168;5.420;2023-06-22T14:19:29;14.40;;;9.48;;
10319;SDS011;5205;52.168;5.420;2023-06-22T14:21:56;11.63;;;9.43;;
10319;SDS011;5205;52.168;5.420;2023-06-22T14:24:24;16.80;;;11.00;;
10319;SDS011;5205;52.168;5.420;2023-06-22T14:26:52;13.98;;;10.38;;
10319;SDS011;5205;52.168;5.420;2023-06-22T14:29:19;18.65;;;10.27;;
10319;SDS011;5205;52.168;5.420;2023-06-22T14:31:46;17.38;;;11.35;;
10319;SDS011;5205;52.168;5.420;2023-06-22T14:34:14;16.65;;;11.05;;
10319;SDS011;5205;52.168;5.420;2023-06-22T14:36:41;15.50;;;11.25;;
10319;SDS011;5205;52.168;5.420;2023-06-22T14:39:08;19.80;;;11.20;;
10319;SDS011;5205;52.168;5.420;2023-06-22T14:41:37;17.33;;;11.38;;
10319;SDS011;5205;52.168;5.420;2023-06-22T14:44:04;17.40;;;11.63;;
10319;SDS011;5205;52.168;5.420;2023-06-22T14:46:31;22.23;;;13.32;;
10319;SDS011;5205;52.168;5.420;2023-06-22T14:48:58;17.77;;;11.85;;
10319;SDS011;5205;52.168;5.420;2023-06-22T14:51:25;20.67;;;12.63;;